Time;durP1;ratioP1;P1;durP2;ratioP2;P2;SDS_P1;SDS_P2;PMS_P1;PMS_P2;Temp;Humidity;BMP_temperature;BMP_pressure;BME280_temperature;BME280_humidity;BME280_pressure;Samples;Min_cycle;Max_cycle;Signal;HPM_P1;HPM_P2
2023/05/23 00:01:38;;;;;;;10.93;5.57;;;23.80;69.00;;;;;;6338171;22;20070;-82
2023/05/23 00:04:04;;;;;;;6.82;5.82;;;23.80;69.00;;;;;;6338866;22;19999;-82
2023/05/23 00:06:30;;;;;;;9.20;6.20;;;23.80;69.10;;;;;;6311775;22;20013;-81
2023/05/23 00:08:56;;;;;;;9.07;5.85;;;23.70;69.30;;;;;;6339119;22;20078;-81
2023/05/23 00:11:26;;;;;;;7.65;5.70;;;23.70;69.50;;;;;;6338572;22;20306;-81
2023/05/23 00:13:56;;;;;;;8.27;5.70;;;23.70;69.50;;;;;;6310546;22;20002;-81
2023/05/23 00:16:21;;;;;;;11.18;6.13;;;23.70;69.40;;;;;;6310415;22;20025;-81
2023/05/23 00:18:49;;;;;;;10.95;6.15;;;23.60;69.30;;;;;;6339082;22;20393;-80
2023/05/23 00:21:15;;;;;;;9.18;5.93;;;23.60;69.40;;;;;;6338991;22;19995;-81
2023/05/23 00:23:42;;;;;;;9.60;5.90;;;23.60;69.40;;;;;;6338977;22;20044;-80
2023/05/23 00:26:08;;;;;;;6.65;5.60;;;23.60;69.70;;;;;;6339322;22;20026;-84
2023/05/23 00:28:34;;;;;;;8.18;6.05;;;23.60;69.70;;;;;;6339321;22;20053;-83
2023/05/23 00:31:00;;;;;;;7.97;5.65;;;23.50;69.20;;;;;;6339305;22;19998;-80
2023/05/23 00:33:25;;;;;;;7.25;6.03;;;23.50;66.90;;;;;;6338584;22;20442;-80
2023/05/23 00:35:51;;;;;;;8.43;5.75;;;23.40;66.70;;;;;;6338740;22;20006;-81
2023/05/23 00:38:17;;;;;;;8.35;5.53;;;23.40;66.30;;;;;;6338808;22;20002;-81
2023/05/23 00:40:43;;;;;;;7.03;5.22;;;23.30;66.40;;;;;;6338441;22;19994;-82
2023/05/23 00:43:08;;;;;;;8.63;5.82;;;23.30;65.80;;;;;;6338541;22;20013;-82
2023/05/23 00:45:34;;;;;;;9.05;5.32;;;23.20;66.10;;;;;;6338000;22;20057;-81
2023/05/23 00:48:01;;;;;;;10.10;6.10;;;23.20;66.60;;;;;;6338463;22;20064;-82
2023/05/23 00:50:28;;;;;;;7.30;5.43;;;23.10;66.90;;;;;;6338955;22;19999;-83
2023/05/23 00:52:55;;;;;;;8.65;5.60;;;23.10;66.10;;;;;;6338620;22;20333;-83
2023/05/23 00:55:22;;;;;;;12.75;5.60;;;23.10;66.80;;;;;;6338672;22;20092;-83
2023/05/23 00:57:47;;;;;;;7.93;5.75;;;23.10;66.60;;;;;;6339390;22;20006;-83
2023/05/23 01:00:14;;;;;;;10.45;6.00;;;23.00;66.90;;;;;;6338805;22;20011;-82
2023/05/23 01:02:44;;;;;;;10.63;5.85;;;23.00;67.10;;;;;;6338239;22;20335;-82
2023/05/23 01:05:13;;;;;;;12.90;6.78;;;23.00;67.30;;;;;;6338194;22;20056;-82
2023/05/23 01:07:39;;;;;;;8.98;5.95;;;23.00;68.00;;;;;;6338629;22;20003;-82
2023/05/23 01:10:06;;;;;;;9.23;5.78;;;23.00;68.30;;;;;;6338816;22;20052;-82
2023/05/23 01:12:57;;;;;;;7.68;6.00;;;23.00;68.80;;;;;;6338043;22;20448;-82
2023/05/23 01:15:36;;;;;;;8.82;5.40;;;22.90;67.80;;;;;;6337783;22;20428;-81
2023/05/23 01:18:29;;;;;;;10.80;5.53;;;22.90;67.60;;;;;;6338267;22;20009;-81
2023/05/23 01:20:58;;;;;;;7.65;5.43;;;22.90;67.70;;;;;;6338513;22;19998;-81
2023/05/23 01:23:43;;;;;;;16.37;6.47;;;22.80;67.60;;;;;;6338335;22;20425;-81
2023/05/23 01:26:22;;;;;;;7.68;5.35;;;22.80;68.00;;;;;;6338548;22;20003;-82
2023/05/23 01:28:54;;;;;;;7.70;5.30;;;22.70;67.90;;;;;;6338283;22;20440;-81
2023/05/23 01:31:22;;;;;;;8.95;6.45;;;22.70;68.00;;;;;;6339061;22;20076;-82
2023/05/23 01:33:49;;;;;;;8.65;5.70;;;22.70;68.50;;;;;;6337463;22;19999;-82
2023/05/23 01:36:14;;;;;;;9.10;5.97;;;22.70;68.70;;;;;;6338538;22;20006;-83
2023/05/23 01:38:40;;;;;;;10.85;6.55;;;22.70;69.00;;;;;;6338608;22;20328;-82
2023/05/23 01:41:06;;;;;;;8.15;6.43;;;22.60;68.90;;;;;;6337988;22;19998;-82
2023/05/23 01:43:32;;;;;;;8.18;6.13;;;22.70;69.10;;;;;;6338404;22;20029;-82
2023/05/23 01:45:59;;;;;;;9.07;5.85;;;22.60;69.00;;;;;;6338479;22;19998;-82
2023/05/23 01:48:26;;;;;;;8.95;6.25;;;22.60;68.80;;;;;;6338546;22;20033;-82
2023/05/23 01:50:53;;;;;;;8.48;6.05;;;22.60;69.20;;;;;;6338115;22;20347;-82
2023/05/23 01:53:21;;;;;;;8.23;6.13;;;22.60;69.60;;;;;;6338284;22;20009;-82
2023/05/23 01:55:47;;;;;;;7.93;6.57;;;22.60;69.80;;;;;;6338146;22;20009;-82
2023/05/23 01:58:13;;;;;;;11.25;6.55;;;22.60;69.60;;;;;;6310739;22;20086;-82
2023/05/23 02:00:39;;;;;;;7.22;6.28;;;22.50;69.70;;;;;;6340448;22;19998;-82
2023/05/23 02:03:05;;;;;;;9.15;5.90;;;22.50;69.70;;;;;;6340222;22;20024;-82
2023/05/23 02:05:31;;;;;;;10.65;6.82;;;22.50;70.10;;;;;;6313397;22;20056;-82
2023/05/23 02:07:57;;;;;;;10.27;6.63;;;22.50;70.30;;;;;;6340934;22;20003;-82
2023/05/23 02:10:22;;;;;;;11.07;7.00;;;22.40;70.50;;;;;;6340950;22;20618;-82
2023/05/23 02:12:48;;;;;;;8.02;6.35;;;22.40;70.90;;;;;;6340061;22;20317;-83
2023/05/23 02:15:14;;;;;;;12.80;7.05;;;22.40;71.20;;;;;;6339714;22;20003;-82
2023/05/23 02:17:40;;;;;;;13.50;6.88;;;22.40;71.20;;;;;;6340194;22;20005;-83
2023/05/23 02:20:06;;;;;;;14.77;7.25;;;22.40;71.40;;;;;;6339993;22;20363;-84
2023/05/23 02:22:32;;;;;;;8.68;6.13;;;22.40;71.30;;;;;;6340062;22;19998;-83
2023/05/23 02:24:58;;;;;;;10.23;6.80;;;22.40;71.60;;;;;;6340078;22;20086;-82
2023/05/23 02:27:23;;;;;;;9.68;7.07;;;22.40;71.50;;;;;;6340026;22;20007;-81
2023/05/23 02:29:49;;;;;;;8.43;7.03;;;22.30;71.70;;;;;;6339986;22;20007;-82
2023/05/23 02:32:15;;;;;;;10.73;7.43;;;22.30;72.00;;;;;;6339623;22;20078;-81
2023/05/23 02:34:41;;;;;;;8.70;6.63;;;22.20;72.10;;;;;;6339312;22;20383;-82
2023/05/23 02:37:06;;;;;;;9.90;6.95;;;22.20;72.20;;;;;;6311948;22;19999;-81
2023/05/23 02:39:34;;;;;;;11.63;7.68;;;22.10;72.30;;;;;;6312126;22;20009;-82
2023/05/23 02:42:00;;;;;;;10.02;6.50;;;22.10;72.50;;;;;;6339590;22;20006;-82
2023/05/23 02:44:26;;;;;;;8.50;7.60;;;22.00;72.80;;;;;;6339148;22;20002;-84
2023/05/23 02:46:52;;;;;;;11.63;8.07;;;22.10;72.80;;;;;;6312123;22;20088;-82
2023/05/23 02:49:17;;;;;;;10.65;7.13;;;22.10;73.00;;;;;;6339630;22;20003;-82
2023/05/23 02:51:43;;;;;;;8.02;6.95;;;22.00;73.10;;;;;;6339460;22;20010;-83
2023/05/23 02:54:08;;;;;;;10.20;7.05;;;22.00;73.80;;;;;;6339956;22;20002;-83
2023/05/23 02:56:34;;;;;;;9.82;7.35;;;21.90;73.40;;;;;;6339275;22;20022;-83
2023/05/23 02:59:00;;;;;;;9.95;7.55;;;21.90;73.60;;;;;;6339542;22;20030;-83
2023/05/23 03:01:26;;;;;;;11.48;7.82;;;21.90;73.70;;;;;;6312335;22;20090;-83
2023/05/23 03:03:51;;;;;;;11.48;7.50;;;21.90;73.90;;;;;;6339478;22;20006;-83
2023/05/23 03:06:17;;;;;;;9.63;7.25;;;21.90;74.20;;;;;;6339836;22;19995;-82
2023/05/23 03:08:43;;;;;;;9.07;6.50;;;21.90;74.10;;;;;;6311619;22;19999;-83
2023/05/23 03:11:09;;;;;;;10.40;6.97;;;21.90;74.40;;;;;;6311993;22;20006;-83
2023/05/23 03:13:35;;;;;;;8.18;6.40;;;21.80;74.40;;;;;;6338803;22;20030;-82
2023/05/23 03:16:01;;;;;;;9.38;7.22;;;21.70;74.40;;;;;;6338704;22;20003;-82
2023/05/23 03:18:26;;;;;;;13.52;7.95;;;21.70;74.40;;;;;;6338922;22;19999;-82
2023/05/23 03:20:52;;;;;;;10.38;8.43;;;21.70;74.70;;;;;;6339374;22;20301;-83
2023/05/23 03:23:18;;;;;;;9.52;7.30;;;21.70;74.80;;;;;;6311684;22;20006;-82
2023/05/23 03:25:43;;;;;;;10.30;8.35;;;21.70;74.80;;;;;;6339433;22;20003;-82
2023/05/23 03:28:11;;;;;;;10.32;7.32;;;21.60;75.20;;;;;;6339302;22;19999;-82
2023/05/23 03:30:36;;;;;;;10.25;7.78;;;21.60;75.10;;;;;;6311186;22;20418;-84
2023/05/23 03:33:02;;;;;;;10.15;6.97;;;21.50;75.00;;;;;;6339000;22;20037;-84
2023/05/23 03:35:28;;;;;;;9.57;7.53;;;21.50;75.30;;;;;;6311276;22;20006;-84
2023/05/23 03:37:54;;;;;;;10.77;7.72;;;21.50;75.30;;;;;;6311637;22;19998;-84
2023/05/23 03:40:20;;;;;;;10.38;7.85;;;21.50;75.30;;;;;;6338730;22;20002;-83
2023/05/23 03:42:47;;;;;;;9.40;7.75;;;21.60;75.20;;;;;;6338749;22;20007;-82
2023/05/23 03:45:13;;;;;;;11.43;7.60;;;21.60;75.10;;;;;;6339463;22;20317;-82
2023/05/23 03:47:38;;;;;;;9.77;6.95;;;21.50;75.20;;;;;;6338774;22;20004;-82
2023/05/23 03:50:05;;;;;;;9.27;7.40;;;21.50;75.00;;;;;;6311510;22;20132;-81
2023/05/23 03:52:30;;;;;;;11.82;7.03;;;21.50;75.30;;;;;;6338098;22;20056;-81
2023/05/23 03:54:56;;;;;;;14.60;7.35;;;21.50;75.30;;;;;;6338207;22;20007;-81
2023/05/23 03:57:22;;;;;;;13.63;6.75;;;21.40;75.10;;;;;;6310620;22;20084;-80
2023/05/23 03:59:47;;;;;;;8.30;6.13;;;21.40;75.40;;;;;;6338675;22;20010;-81
2023/05/23 04:02:13;;;;;;;9.52;7.28;;;21.40;75.70;;;;;;6338510;22;20025;-81
2023/05/23 04:04:39;;;;;;;9.02;7.15;;;21.50;75.60;;;;;;6339295;22;20025;-80
2023/05/23 04:07:05;;;;;;;10.10;7.25;;;21.50;75.60;;;;;;6338825;22;20026;-81
2023/05/23 04:09:31;;;;;;;9.98;6.95;;;21.50;75.60;;;;;;6339075;22;20416;-80
2023/05/23 04:11:57;;;;;;;8.45;7.18;;;21.50;75.50;;;;;;6337943;22;20006;-80
2023/05/23 04:14:26;;;;;;;8.60;7.00;;;21.50;75.50;;;;;;6338664;22;20010;-82
2023/05/23 04:16:52;;;;;;;9.27;6.03;;;21.50;76.00;;;;;;6338936;22;19995;-81
2023/05/23 04:19:18;;;;;;;8.43;6.32;;;21.40;75.30;;;;;;6339255;22;20006;-81
2023/05/23 04:21:43;;;;;;;9.38;7.70;;;21.40;75.50;;;;;;6338589;22;20428;-82
2023/05/23 04:24:09;;;;;;;10.27;8.45;;;21.30;75.80;;;;;;6337583;22;20443;-82
2023/05/23 04:26:35;;;;;;;11.65;7.70;;;21.20;76.10;;;;;;6337934;22;20358;-82
2023/05/23 04:29:02;;;;;;;9.75;7.85;;;21.10;76.00;;;;;;6338300;22;19994;-81
2023/05/23 04:31:28;;;;;;;14.15;7.20;;;21.10;76.60;;;;;;6337560;22;20486;-81
2023/05/23 04:33:53;;;;;;;10.57;7.20;;;21.00;76.70;;;;;;6338352;22;20073;-81
2023/05/23 04:36:19;;;;;;;7.25;6.35;;;21.00;76.70;;;;;;6337627;22;20013;-81
2023/05/23 04:38:45;;;;;;;7.28;6.53;;;21.00;76.70;;;;;;6338607;22;20079;-81
2023/05/23 04:41:10;;;;;;;9.27;7.03;;;21.00;76.50;;;;;;6337396;22;20006;-86
2023/05/23 04:43:41;;;;;;;11.43;7.05;;;21.10;76.60;;;;;;6338438;22;20005;-82
2023/05/23 04:46:07;;;;;;;7.85;6.68;;;21.10;76.50;;;;;;6338333;22;19999;-82
2023/05/23 04:48:35;;;;;;;13.45;6.72;;;21.10;76.70;;;;;;6338234;22;20007;-82
2023/05/23 04:51:04;;;;;;;8.57;7.05;;;21.10;76.60;;;;;;6338024;22;20009;-80
2023/05/23 04:53:30;;;;;;;9.00;7.80;;;21.10;76.30;;;;;;6336247;22;20010;-80
2023/05/23 04:55:56;;;;;;;7.50;6.28;;;21.20;76.70;;;;;;6337107;22;20028;-82
2023/05/23 04:58:21;;;;;;;8.45;6.47;;;21.10;76.70;;;;;;6336739;22;20432;-81
2023/05/23 05:00:47;;;;;;;7.65;5.82;;;21.10;76.70;;;;;;6338302;22;20029;-82
2023/05/23 05:03:13;;;;;;;12.73;6.78;;;21.10;76.70;;;;;;6338824;22;20325;-81
2023/05/23 05:05:38;;;;;;;9.00;7.07;;;21.10;76.70;;;;;;6338254;22;20034;-81
2023/05/23 05:08:04;;;;;;;10.98;7.35;;;21.10;77.20;;;;;;6338771;22;19998;-82
2023/05/23 05:10:30;;;;;;;7.18;6.45;;;21.10;77.00;;;;;;6337990;22;20007;-83
2023/05/23 05:12:56;;;;;;;8.57;7.63;;;21.10;76.90;;;;;;6336254;22;20013;-82
2023/05/23 05:15:22;;;;;;;11.13;7.65;;;21.10;77.10;;;;;;6336698;22;20026;-82
2023/05/23 05:17:48;;;;;;;14.10;8.05;;;21.10;76.90;;;;;;6336083;22;20005;-82
2023/05/23 05:20:14;;;;;;;17.10;7.28;;;21.20;76.90;;;;;;6334521;22;19995;-81
2023/05/23 05:22:40;;;;;;;9.50;7.47;;;21.20;77.00;;;;;;6336974;22;20360;-80
2023/05/23 05:25:09;;;;;;;10.98;8.27;;;21.20;77.00;;;;;;6334385;22;20685;-82
2023/05/23 05:27:38;;;;;;;9.63;7.88;;;21.20;76.90;;;;;;6337272;22;20014;-82
2023/05/23 05:30:08;;;;;;;10.23;6.77;;;21.20;77.10;;;;;;6338061;22;20082;-83
2023/05/23 05:32:33;;;;;;;9.48;7.30;;;21.30;77.00;;;;;;6337868;22;20048;-83
2023/05/23 05:35:00;;;;;;;10.25;8.27;;;21.30;77.00;;;;;;6339853;22;20003;-83
2023/05/23 05:37:25;;;;;;;8.60;7.38;;;21.30;77.20;;;;;;6339466;22;20022;-82
2023/05/23 05:39:53;;;;;;;10.63;7.28;;;21.40;77.10;;;;;;6340042;22;20421;-82
2023/05/23 05:42:19;;;;;;;10.45;7.45;;;21.40;76.90;;;;;;6339725;22;20076;-83
2023/05/23 05:44:45;;;;;;;16.42;8.65;;;21.40;76.90;;;;;;6312070;22;20082;-83
2023/05/23 05:47:12;;;;;;;10.25;7.43;;;21.40;76.90;;;;;;6340393;22;20487;-85
2023/05/23 05:49:37;;;;;;;11.48;7.63;;;21.50;76.80;;;;;;6340817;22;20013;-83
2023/05/23 05:52:05;;;;;;;10.27;7.35;;;21.50;77.00;;;;;;6340984;22;20030;-83
2023/05/23 05:54:31;;;;;;;8.80;6.85;;;21.60;77.00;;;;;;6340184;22;20010;-82
2023/05/23 05:56:57;;;;;;;8.38;6.75;;;21.60;77.00;;;;;;6312577;22;20034;-82
2023/05/23 05:59:23;;;;;;;12.32;8.50;;;21.60;77.20;;;;;;6340927;22;20011;-82
2023/05/23 06:01:52;;;;;;;7.63;6.80;;;21.60;77.00;;;;;;6312627;22;20088;-82
2023/05/23 06:04:18;;;;;;;8.85;7.05;;;21.70;76.90;;;;;;6312797;22;20006;-82
2023/05/23 06:06:44;;;;;;;12.75;8.60;;;21.80;77.10;;;;;;6340691;22;20027;-82
2023/05/23 06:09:10;;;;;;;11.32;8.70;;;21.80;77.20;;;;;;6313623;22;20309;-82
2023/05/23 06:11:39;;;;;;;10.52;7.35;;;21.80;77.20;;;;;;6341091;22;20034;-83
2023/05/23 06:14:08;;;;;;;11.38;8.40;;;21.90;77.10;;;;;;6339873;22;20082;-82
2023/05/23 06:16:34;;;;;;;9.27;7.35;;;21.90;77.20;;;;;;6340371;22;19994;-85
2023/05/23 06:19:00;;;;;;;16.13;8.18;;;21.90;77.00;;;;;;6341209;22;20040;-84
2023/05/23 06:21:26;;;;;;;8.20;7.30;;;21.90;76.70;;;;;;6313411;22;20053;-82
2023/05/23 06:23:52;;;;;;;9.68;7.30;;;21.90;76.80;;;;;;6340866;22;20063;-80
2023/05/23 06:26:17;;;;;;;8.65;6.95;;;22.00;76.70;;;;;;6340068;22;20359;-80
2023/05/23 06:28:43;;;;;;;11.10;7.90;;;22.00;76.70;;;;;;6312348;22;20290;-81
2023/05/23 06:31:09;;;;;;;8.13;6.07;;;22.00;76.70;;;;;;6340901;22;19998;-81
2023/05/23 06:33:35;;;;;;;10.32;6.85;;;22.10;76.40;;;;;;6339309;22;20484;-80
2023/05/23 06:36:00;;;;;;;10.77;6.47;;;22.20;76.60;;;;;;6339695;22;20003;-80
2023/05/23 06:38:30;;;;;;;10.07;6.53;;;22.30;76.30;;;;;;6338785;22;20267;-81
2023/05/23 06:41:05;;;;;;;7.47;6.13;;;22.30;76.00;;;;;;6339747;22;20005;-81
2023/05/23 06:43:31;;;;;;;10.38;6.32;;;22.30;76.00;;;;;;6339566;22;20003;-81
2023/05/23 06:45:57;;;;;;;7.75;6.72;;;22.40;75.90;;;;;;6339445;22;20099;-82
2023/05/23 06:48:22;;;;;;;10.25;6.97;;;22.50;75.60;;;;;;6340187;22;20053;-83
2023/05/23 06:50:48;;;;;;;8.65;6.03;;;22.60;75.60;;;;;;6339811;22;20007;-82
2023/05/23 06:53:15;;;;;;;9.73;8.00;;;22.70;75.50;;;;;;6339484;22;20063;-83
2023/05/23 06:55:43;;;;;;;8.27;6.00;;;22.70;74.80;;;;;;6338919;22;20538;-83
2023/05/23 06:58:09;;;;;;;11.85;8.40;;;22.70;74.30;;;;;;6309912;22;19999;-82
2023/05/23 07:00:35;;;;;;;14.05;6.13;;;22.80;74.80;;;;;;6310605;22;20065;-83
2023/05/23 07:03:02;;;;;;;8.70;5.78;;;22.90;74.30;;;;;;6340796;22;20369;-81
2023/05/23 07:05:28;;;;;;;5.65;4.90;;;22.90;74.00;;;;;;6315887;22;20003;-81
2023/05/23 07:07:53;;;;;;;8.93;6.45;;;23.00;74.00;;;;;;6313283;22;20037;-81
2023/05/23 07:10:19;;;;;;;7.05;5.07;;;23.10;73.50;;;;;;6340921;22;20351;-81
2023/05/23 07:12:46;;;;;;;7.30;5.28;;;23.10;72.70;;;;;;6343632;22;19999;-81
2023/05/23 07:15:13;;;;;;;9.02;5.85;;;23.20;72.80;;;;;;6342337;22;20428;-81
2023/05/23 07:17:39;;;;;;;9.45;5.38;;;23.20;70.50;;;;;;6341745;22;20025;-87
2023/05/23 07:20:06;;;;;;;7.57;5.00;;;23.30;71.00;;;;;;6344308;22;19995;-89
2023/05/23 07:22:31;;;;;;;6.95;4.68;;;23.30;70.60;;;;;;6316714;22;20314;-89
2023/05/23 07:24:57;;;;;;;7.43;5.07;;;23.40;70.40;;;;;;6314631;22;20022;-89
2023/05/23 07:27:23;;;;;;;7.47;4.35;;;23.50;70.20;;;;;;6341922;22;19998;-89
2023/05/23 07:29:49;;;;;;;6.50;4.85;;;23.50;70.20;;;;;;6313772;22;20007;-90
2023/05/23 07:32:15;;;;;;;10.13;5.30;;;23.50;70.20;;;;;;6313465;22;20069;-92
2023/05/23 07:34:41;;;;;;;6.32;4.20;;;23.60;70.00;;;;;;6340139;22;20017;-88
2023/05/23 07:37:06;;;;;;;9.32;6.07;;;23.60;70.20;;;;;;6339996;22;19999;-87
2023/05/23 07:39:32;;;;;;;5.07;4.20;;;23.70;70.00;;;;;;6340005;22;20611;-88
2023/05/23 07:41:58;;;;;;;6.35;4.38;;;23.70;70.00;;;;;;6340289;22;19995;-85
2023/05/23 07:44:32;;;;;;;7.70;4.57;;;23.80;70.40;;;;;;6339983;22;20437;-86
2023/05/23 07:47:04;;;;;;;5.53;4.32;;;23.90;69.80;;;;;;6339953;22;20368;-86
2023/05/23 07:49:36;;;;;;;6.60;4.10;;;24.00;69.10;;;;;;6312857;22;20011;-85
2023/05/23 07:52:02;;;;;;;4.72;4.20;;;24.10;69.90;;;;;;6316344;22;20002;-86
2023/05/23 07:54:28;;;;;;;7.75;4.80;;;24.20;70.00;;;;;;6315951;22;20033;-85
2023/05/23 07:56:59;;;;;;;4.75;4.20;;;24.30;69.40;;;;;;6314671;22;20321;-86
2023/05/23 07:59:29;;;;;;;7.35;4.78;;;24.40;69.40;;;;;;6341730;22;20010;-86
2023/05/23 08:02:01;;;;;;;7.73;4.87;;;24.40;69.70;;;;;;6315755;22;19999;-85
2023/05/23 08:04:28;;;;;;;7.85;5.38;;;24.50;69.00;;;;;;6342077;22;20021;-86
2023/05/23 08:06:54;;;;;;;5.40;4.22;;;24.60;68.20;;;;;;6345345;22;20455;-86
2023/05/23 08:09:23;;;;;;;5.97;4.55;;;24.60;67.80;;;;;;6319879;22;19995;-86
2023/05/23 08:11:49;;;;;;;5.25;4.15;;;24.70;67.90;;;;;;6323078;22;20057;-84
2023/05/23 08:14:16;;;;;;;6.18;4.15;;;24.70;67.70;;;;;;6341904;22;20061;-84
2023/05/23 08:16:45;;;;;;;5.90;4.55;;;24.80;67.50;;;;;;6340875;22;19999;-84
2023/05/23 08:19:10;;;;;;;7.22;4.05;;;24.80;67.90;;;;;;6340259;22;20006;-83
2023/05/23 08:21:36;;;;;;;8.00;4.88;;;24.90;68.60;;;;;;6340307;22;20476;-85
2023/05/23 08:24:02;;;;;;;8.77;4.57;;;25.00;68.10;;;;;;6312793;22;20018;-84
2023/05/23 08:26:33;;;;;;;6.25;5.13;;;25.10;67.80;;;;;;6341581;22;19994;-87
2023/05/23 08:29:01;;;;;;;5.85;4.85;;;25.20;67.90;;;;;;6342151;22;20006;-87
2023/05/23 08:31:27;;;;;;;4.70;3.80;;;25.30;67.80;;;;;;6313854;22;20382;-86
2023/05/23 08:33:53;;;;;;;5.35;4.18;;;25.40;67.60;;;;;;6314190;22;19999;-85
2023/05/23 08:36:18;;;;;;;9.73;5.50;;;25.50;67.90;;;;;;6346614;22;20005;-86
2023/05/23 08:38:44;;;;;;;4.95;3.80;;;25.50;65.20;;;;;;6312462;22;20516;-85
2023/05/23 08:41:18;;;;;;;6.90;4.43;;;25.60;65.20;;;;;;6311242;22;20113;-86
2023/05/23 08:43:43;;;;;;;6.85;4.45;;;25.60;66.60;;;;;;6339194;22;20363;-86
2023/05/23 08:46:10;;;;;;;6.72;4.28;;;25.80;66.60;;;;;;6338883;22;20003;-86
2023/05/23 08:48:37;;;;;;;6.07;4.57;;;25.90;67.20;;;;;;6338164;22;20048;-81
2023/05/23 08:51:03;;;;;;;4.93;4.18;;;26.00;66.00;;;;;;6338380;22;20049;-81
2023/05/23 08:53:31;;;;;;;5.72;4.32;;;26.00;65.60;;;;;;6338796;22;20025;-80
2023/05/23 08:56:01;;;;;;;5.70;3.75;;;26.10;65.00;;;;;;6338195;22;19998;-80
2023/05/23 08:58:33;;;;;;;7.25;5.05;;;26.20;63.90;;;;;;6337698;22;20006;-81
2023/05/23 09:00:59;;;;;;;5.18;3.95;;;26.20;63.60;;;;;;6338383;22;20002;-81
2023/05/23 09:03:28;;;;;;;5.63;3.97;;;26.30;64.50;;;;;;6336855;22;20014;-80
2023/05/23 09:05:54;;;;;;;7.13;3.83;;;26.40;63.80;;;;;;6338317;22;20002;-81
2023/05/23 09:08:20;;;;;;;5.07;3.80;;;26.40;64.70;;;;;;6338301;22;20082;-81
2023/05/23 09:10:48;;;;;;;7.45;4.20;;;26.60;65.30;;;;;;6331897;22;20010;-84
2023/05/23 09:13:16;;;;;;;8.55;3.75;;;26.70;65.20;;;;;;6337574;22;19999;-81
2023/05/23 09:16:01;;;;;;;7.95;4.25;;;26.80;65.10;;;;;;6337997;22;20006;-81
2023/05/23 09:18:36;;;;;;;7.45;4.75;;;26.90;64.50;;;;;;6338749;22;20010;-83
2023/05/23 09:21:02;;;;;;;10.73;5.00;;;27.00;63.30;;;;;;6337947;22;20463;-83
2023/05/23 09:23:32;;;;;;;10.38;5.20;;;27.00;62.70;;;;;;6338379;22;20006;-83
2023/05/23 09:26:04;;;;;;;;;;;27.10;62.20;;;;;;6338986;22;19999;-83
2023/05/23 09:28:32;;;;;;;7.07;5.15;;;27.10;59.90;;;;;;6338334;22;20254;-83
2023/05/23 09:31:03;;;;;;;12.90;6.63;;;27.20;62.00;;;;;;6338487;22;20489;-83
2023/05/23 09:33:49;;;;;;;10.25;6.47;;;27.30;62.90;;;;;;6338102;22;20069;-83
2023/05/23 09:36:18;;;;;;;10.48;5.28;;;27.40;64.00;;;;;;6338210;22;20003;-83
2023/05/23 09:38:46;;;;;;;9.73;6.20;;;27.50;64.60;;;;;;6341492;22;20003;-83
2023/05/23 09:41:12;;;;;;;7.38;5.65;;;27.60;64.40;;;;;;6352436;22;20007;-80
2023/05/23 09:43:53;;;;;;;9.32;5.28;;;27.70;64.90;;;;;;6349168;22;20010;-79
2023/05/23 09:46:21;;;;;;;12.23;5.38;;;27.90;64.60;;;;;;6344772;22;20030;-80
2023/05/23 09:48:50;;;;;;;10.25;5.90;;;28.00;64.20;;;;;;6315423;22;20007;-83
2023/05/23 09:51:21;;;;;;;7.47;5.30;;;28.10;63.80;;;;;;6340401;22;19999;-83
2023/05/23 09:53:48;;;;;;;7.07;5.38;;;28.20;64.20;;;;;;6339688;22;20371;-84
2023/05/23 09:56:16;;;;;;;8.88;5.80;;;28.30;64.20;;;;;;6309915;22;20002;-82
2023/05/23 09:58:47;;;;;;;12.77;5.63;;;28.40;63.40;;;;;;6337566;22;20090;-82
2023/05/23 10:01:14;;;;;;;11.32;6.07;;;28.50;63.40;;;;;;6310058;22;20086;-84
2023/05/23 10:03:49;;;;;;;14.88;6.10;;;28.60;63.30;;;;;;6336624;22;20475;-84
2023/05/23 10:06:41;;;;;;;14.60;5.82;;;28.70;62.80;;;;;;6337472;22;20057;-85
2023/05/23 10:09:14;;;;;;;12.95;6.50;;;28.80;62.50;;;;;;6310124;22;20030;-85
2023/05/23 10:11:45;;;;;;;10.70;5.70;;;28.90;62.30;;;;;;6338464;22;20009;-84
2023/05/23 10:14:12;;;;;;;9.82;5.07;;;28.90;61.90;;;;;;6337325;22;20053;-83
2023/05/23 10:17:05;;;;;;;12.45;5.50;;;29.00;62.20;;;;;;6309841;22;20006;-84
2023/05/23 10:19:56;;;;;;;11.93;5.88;;;29.10;62.30;;;;;;6339302;22;19999;-85
2023/05/23 10:22:23;;;;;;;8.75;5.35;;;29.20;61.80;;;;;;6339447;22;19995;-85
2023/05/23 10:24:49;;;;;;;9.70;5.15;;;29.20;61.60;;;;;;6339064;22;20056;-85
2023/05/23 10:27:14;;;;;;;8.82;5.78;;;29.30;61.30;;;;;;6339500;22;19999;-86
2023/05/23 10:29:41;;;;;;;8.18;5.28;;;29.40;60.90;;;;;;6340191;22;20013;-85
2023/05/23 10:32:08;;;;;;;7.20;5.60;;;29.40;61.20;;;;;;6340300;22;20026;-86
2023/05/23 10:34:54;;;;;;;9.52;6.43;;;29.50;61.10;;;;;;6339700;22;20009;-86
2023/05/23 10:37:28;;;;;;;12.05;5.63;;;29.60;60.70;;;;;;6339877;22;20006;-85
2023/05/23 10:40:15;;;;;;;12.38;5.93;;;29.70;60.90;;;;;;6341174;22;19999;-85
2023/05/23 10:43:06;;;;;;;13.63;5.90;;;29.80;60.70;;;;;;6340380;22;20002;-85
2023/05/23 10:45:42;;;;;;;11.13;6.03;;;29.90;60.90;;;;;;6339959;22;20007;-86
2023/05/23 10:48:34;;;;;;;9.02;6.03;;;30.00;61.10;;;;;;6340236;22;20003;-85
2023/05/23 10:51:13;;;;;;;6.05;4.60;;;30.20;61.20;;;;;;6325872;22;20003;-85
2023/05/23 10:53:44;;;;;;;9.43;4.72;;;30.30;59.50;;;;;;6339417;22;20002;-85
2023/05/23 10:56:18;;;;;;;11.80;5.20;;;30.30;58.60;;;;;;6339392;22;20003;-86
2023/05/23 10:58:43;;;;;;;8.80;5.40;;;30.40;59.80;;;;;;6339046;22;20455;-86
2023/05/23 11:01:14;;;;;;;7.78;4.90;;;30.50;60.00;;;;;;6339959;22;19994;-86
2023/05/23 11:03:45;;;;;;;7.00;5.13;;;30.70;59.00;;;;;;6339746;22;20453;-86
2023/05/23 11:06:34;;;;;;;5.35;4.28;;;30.80;58.40;;;;;;6340625;22;20007;-86
2023/05/23 11:09:11;;;;;;;5.43;4.50;;;30.90;58.50;;;;;;6339895;22;20064;-86
2023/05/23 11:11:58;;;;;;;7.13;4.60;;;31.10;58.30;;;;;;6341050;22;20003;-86
2023/05/23 11:14:36;;;;;;;5.70;4.93;;;31.20;58.10;;;;;;6339404;22;20803;-84
2023/05/23 11:17:30;;;;;;;7.25;4.63;;;31.40;56.80;;;;;;6339422;22;20006;-84
2023/05/23 11:20:08;;;;;;;9.40;5.50;;;31.60;56.30;;;;;;6339022;22;20541;-84
2023/05/23 11:22:35;;;;;;;11.13;4.80;;;31.70;55.00;;;;;;6340161;22;19999;-84
2023/05/23 11:25:05;;;;;;;6.00;4.75;;;31.80;56.30;;;;;;6339808;22;20420;-82
2023/05/23 11:27:39;;;;;;;9.13;5.35;;;32.10;56.00;;;;;;6338555;22;20010;-83
2023/05/23 11:30:09;;;;;;;6.03;5.03;;;32.30;55.40;;;;;;6339626;22;19999;-81
2023/05/23 11:32:35;;;;;;;8.55;5.68;;;32.40;54.20;;;;;;6338870;22;20526;-83
2023/05/23 11:35:09;;;;;;;7.53;5.45;;;32.60;54.80;;;;;;6311395;22;20079;-84
2023/05/23 11:37:37;;;;;;;6.85;5.03;;;33.00;54.70;;;;;;6339297;22;19995;-84
2023/05/23 11:40:35;;;;;;;12.95;6.22;;;33.40;54.80;;;;;;6340060;22;20300;-83
2023/05/23 11:43:03;;;;;;;9.77;5.25;;;33.80;52.70;;;;;;6339326;22;20003;-85
2023/05/23 11:45:33;;;;;;;6.88;4.85;;;34.00;52.70;;;;;;6339663;22;20439;-84
2023/05/23 11:48:04;;;;;;;6.45;5.20;;;34.30;52.20;;;;;;6311798;22;20003;-85
2023/05/23 11:50:30;;;;;;;6.60;5.25;;;34.60;51.00;;;;;;6339688;22;20441;-84
2023/05/23 11:52:56;;;;;;;6.75;5.13;;;34.70;50.60;;;;;;6338739;22;20010;-86
2023/05/23 11:55:22;;;;;;;7.85;5.03;;;34.80;49.50;;;;;;6337761;22;20016;-85
2023/05/23 11:57:49;;;;;;;7.53;5.53;;;34.90;50.40;;;;;;6311336;22;20434;-83
2023/05/23 12:00:15;;;;;;;7.43;5.22;;;35.00;50.40;;;;;;6339732;22;20010;-85
2023/05/23 12:02:42;;;;;;;11.80;5.35;;;35.10;50.30;;;;;;6339316;22;19996;-84
2023/05/23 12:05:09;;;;;;;11.43;6.35;;;35.20;49.70;;;;;;6310930;22;20010;-85
2023/05/23 12:07:35;;;;;;;8.77;5.47;;;35.20;48.50;;;;;;6339351;22;20017;-84
2023/05/23 12:10:03;;;;;;;5.45;4.75;;;35.20;49.40;;;;;;6330743;22;20026;-85
2023/05/23 12:12:31;;;;;;;7.15;5.13;;;35.40;49.30;;;;;;6338921;22;20055;-85
2023/05/23 12:14:57;;;;;;;12.35;6.10;;;35.50;49.40;;;;;;6338327;22;20036;-85
2023/05/23 12:17:23;;;;;;;12.00;6.25;;;35.60;49.20;;;;;;6338788;22;20007;-85
2023/05/23 12:19:48;;;;;;;10.00;5.22;;;35.60;48.70;;;;;;6338904;22;20374;-84
2023/05/23 12:22:21;;;;;;;8.43;5.65;;;35.80;48.70;;;;;;6338627;22;20030;-84
2023/05/23 12:24:47;;;;;;;11.13;5.80;;;35.90;48.50;;;;;;6311221;22;20499;-84
2023/05/23 12:27:16;;;;;;;10.50;6.75;;;36.00;48.30;;;;;;6338185;22;20007;-85
2023/05/23 12:29:49;;;;;;;9.20;6.00;;;36.10;48.60;;;;;;6310512;22;20301;-85
2023/05/23 12:32:17;;;;;;;6.55;5.40;;;36.10;48.50;;;;;;6324660;22;20373;-85
2023/05/23 12:34:44;;;;;;;10.70;5.90;;;36.00;48.60;;;;;;6338252;22;20037;-84
2023/05/23 12:37:13;;;;;;;10.13;6.53;;;36.10;48.40;;;;;;6337054;22;20074;-84
2023/05/23 12:39:43;;;;;;;13.13;5.70;;;36.00;47.90;;;;;;6338406;22;20048;-85
2023/05/23 12:42:11;;;;;;;8.98;5.47;;;36.00;48.30;;;;;;6337757;22;20037;-86
2023/05/23 12:44:44;;;;;;;7.00;5.68;;;35.90;48.70;;;;;;6337659;22;20678;-80
2023/05/23 12:47:12;;;;;;;7.75;5.70;;;35.90;48.70;;;;;;6337963;22;20074;-81
2023/05/23 12:49:39;;;;;;;12.68;7.35;;;35.90;48.90;;;;;;6338191;22;20325;-81